Time;durP1;ratioP1;P1;durP2;ratioP2;P2;SDS_P1;SDS_P2;PMS_P1;PMS_P2;Temp;Humidity;BMP_temperature;BMP_pressure;BME280_temperature;BME280_humidity;BME280_pressure;Samples;Min_cycle;Max_cycle;Signal;HPM_P1;HPM_P2
2024/02/08 00:00:01;;;;;;;1.53;0.70;;;;;;;;;;628922;23;1073;-75
2024/02/08 00:00:17;;;;;;;1.63;0.80;;;;;;;;;;628722;23;1229;-75
2024/02/08 00:00:32;;;;;;;1.23;0.90;;;;;;;;;;628668;23;1383;-75
2024/02/08 00:00:47;;;;;;;0.90;0.80;;;;;;;;;;629319;23;935;-75
2024/02/08 00:01:03;;;;;;;0.80;0.63;;;;;;;;;;629051;23;1905;-75
2024/02/08 00:01:18;;;;;;;1.05;0.65;;;;;;;;;;628513;23;1309;-75
2024/02/08 00:01:33;;;;;;;1.20;0.70;;;;;;;;;;628843;23;971;-75
2024/02/08 00:01:49;;;;;;;0.98;0.68;;;;;;;;;;629159;23;1029;-75
2024/02/08 00:02:04;;;;;;;1.07;0.67;;;;;;;;;;629631;23;1289;-74
2024/02/08 00:02:19;;;;;;;1.50;0.70;;;;;;;;;;628453;23;1373;-74
2024/02/08 00:02:35;;;;;;;1.38;0.77;;;;;;;;;;629285;23;1017;-73
2024/02/08 00:02:50;;;;;;;0.93;0.70;;;;;;;;;;626191;23;1255;-73
2024/02/08 00:03:10;;;;;;;0.80;0.60;;;;;;;;;;626043;23;1151;-73
2024/02/08 00:03:25;;;;;;;1.40;0.60;;;;;;;;;;626024;23;967;-73
2024/02/08 00:03:42;;;;;;;1.73;0.70;;;;;;;;;;626009;23;1003;-73
2024/02/08 00:03:57;;;;;;;1.20;0.70;;;;;;;;;;626236;23;888;-73
2024/02/08 00:04:12;;;;;;;1.10;0.70;;;;;;;;;;626135;23;1420;-73
2024/02/08 00:04:28;;;;;;;1.10;0.75;;;;;;;;;;626093;23;1051;-73
2024/02/08 00:04:44;;;;;;;1.00;0.70;;;;;;;;;;627759;23;849;-73
2024/02/08 00:05:00;;;;;;;0.90;0.70;;;;;;;;;;629212;23;907;-73
2024/02/08 00:05:15;;;;;;;0.83;0.70;;;;;;;;;;628963;23;1038;-73
2024/02/08 00:05:30;;;;;;;1.10;0.70;;;;;;;;;;631825;23;1278;-73
2024/02/08 00:05:46;;;;;;;1.00;0.70;;;;;;;;;;631893;23;1180;-73
2024/02/08 00:06:01;;;;;;;0.70;0.70;;;;;;;;;;632760;23;965;-73
2024/02/08 00:06:16;;;;;;;0.70;0.70;;;;;;;;;;634746;23;1074;-73
2024/02/08 00:06:32;;;;;;;0.80;0.70;;;;;;;;;;632024;23;1445;-73
2024/02/08 00:06:47;;;;;;;1.07;0.70;;;;;;;;;;632194;23;1304;-73
2024/02/08 00:07:03;;;;;;;1.30;0.80;;;;;;;;;;628781;23;1182;-74
2024/02/08 00:07:19;;;;;;;1.27;0.80;;;;;;;;;;627528;23;1405;-73
2024/02/08 00:07:35;;;;;;;0.70;0.70;;;;;;;;;;626189;23;1222;-73
2024/02/08 00:07:50;;;;;;;1.30;0.70;;;;;;;;;;622868;23;1291;-73
2024/02/08 00:08:06;;;;;;;1.83;0.80;;;;;;;;;;622961;23;1011;-73
2024/02/08 00:08:21;;;;;;;1.55;0.80;;;;;;;;;;626836;23;821;-73
2024/02/08 00:08:36;;;;;;;1.10;0.70;;;;;;;;;;629107;23;1296;-73
2024/02/08 00:08:53;;;;;;;0.87;0.67;;;;;;;;;;629734;23;833;-73
2024/02/08 00:09:08;;;;;;;1.00;0.70;;;;;;;;;;631856;23;891;-73
2024/02/08 00:09:24;;;;;;;1.70;0.80;;;;;;;;;;631400;23;996;-73
2024/02/08 00:09:39;;;;;;;1.80;0.80;;;;;;;;;;629035;23;1410;-73
2024/02/08 00:09:57;;;;;;;1.30;0.70;;;;;;;;;;628732;23;1213;-73
2024/02/08 00:10:12;;;;;;;1.48;0.80;;;;;;;;;;629286;23;931;-73
2024/02/08 00:10:28;;;;;;;1.20;0.80;;;;;;;;;;628501;23;1280;-74
2024/02/08 00:10:43;;;;;;;1.03;0.80;;;;;;;;;;629254;23;1207;-73
2024/02/08 00:10:58;;;;;;;1.02;0.80;;;;;;;;;;626112;23;1328;-73
2024/02/08 00:11:14;;;;;;;1.00;0.80;;;;;;;;;;625598;23;1355;-73
2024/02/08 00:11:31;;;;;;;1.38;0.80;;;;;;;;;;626660;23;801;-74
2024/02/08 00:11:47;;;;;;;1.35;0.70;;;;;;;;;;624956;23;1511;-73
2024/02/08 00:12:03;;;;;;;1.17;0.80;;;;;;;;;;622942;23;1114;-73
2024/02/08 00:12:19;;;;;;;1.08;0.80;;;;;;;;;;622325;23;1072;-73
2024/02/08 00:12:38;;;;;;;1.17;0.90;;;;;;;;;;623393;23;1072;-73
2024/02/08 00:12:53;;;;;;;1.10;0.85;;;;;;;;;;627762;23;973;-73
2024/02/08 00:13:08;;;;;;;1.20;0.90;;;;;;;;;;629139;23;932;-73
2024/02/08 00:13:24;;;;;;;1.27;0.97;;;;;;;;;;628396;23;1271;-73
2024/02/08 00:13:39;;;;;;;1.43;1.23;;;;;;;;;;630327;23;864;-73
2024/02/08 00:13:54;;;;;;;2.08;1.80;;;;;;;;;;634999;23;1233;-73
2024/02/08 00:14:09;;;;;;;2.40;1.57;;;;;;;;;;634809;23;1246;-73
2024/02/08 00:14:25;;;;;;;2.67;1.10;;;;;;;;;;634693;23;1030;-73
2024/02/08 00:14:40;;;;;;;2.55;1.42;;;;;;;;;;635041;23;1312;-73
2024/02/08 00:14:55;;;;;;;2.60;1.80;;;;;;;;;;635205;23;1612;-73
2024/02/08 00:15:11;;;;;;;3.37;2.93;;;;;;;;;;635222;23;868;-73
2024/02/08 00:15:29;;;;;;;4.93;4.53;;;;;;;;;;634500;23;1016;-73
2024/02/08 00:15:44;;;;;;;4.30;3.92;;;;;;;;;;634090;23;871;-73
2024/02/08 00:16:00;;;;;;;2.47;2.03;;;;;;;;;;632031;23;837;-73
2024/02/08 00:16:15;;;;;;;2.45;2.10;;;;;;;;;;631796;23;1154;-74
2024/02/08 00:16:31;;;;;;;3.88;3.58;;;;;;;;;;631982;23;1252;-73
2024/02/08 00:16:47;;;;;;;5.18;4.75;;;;;;;;;;632104;23;899;-73
2024/02/08 00:17:02;;;;;;;5.27;4.87;;;;;;;;;;632261;23;943;-73
2024/02/08 00:17:20;;;;;;;5.00;4.60;;;;;;;;;;631243;23;932;-73
2024/02/08 00:17:36;;;;;;;4.63;4.22;;;;;;;;;;629083;23;907;-73
2024/02/08 00:17:51;;;;;;;3.90;3.60;;;;;;;;;;629001;23;1146;-73
2024/02/08 00:18:07;;;;;;;3.30;3.00;;;;;;;;;;628996;23;1133;-73
2024/02/08 00:18:22;;;;;;;3.30;3.00;;;;;;;;;;628569;23;790;-73
2024/02/08 00:18:37;;;;;;;3.27;2.67;;;;;;;;;;628892;23;1130;-73
2024/02/08 00:18:56;;;;;;;3.15;2.38;;;;;;;;;;629203;23;929;-73
2024/02/08 00:19:15;;;;;;;3.03;2.60;;;;;;;;;;631764;23;1376;-73
2024/02/08 00:19:30;;;;;;;18.55;13.18;;;;;;;;;;631199;23;1237;-73
2024/02/08 00:19:48;;;;;;;40.95;27.55;;;;;;;;;;632240;23;816;-73
2024/02/08 00:20:06;;;;;;;44.35;29.17;;;;;;;;;;631986;23;1154;-73
2024/02/08 00:20:21;;;;;;;32.58;22.40;;;;;;;;;;631323;23;1037;-73
2024/02/08 00:20:36;;;;;;;19.43;13.90;;;;;;;;;;631633;23;1095;-73
2024/02/08 00:20:52;;;;;;;11.55;7.93;;;;;;;;;;629006;23;1263;-73
2024/02/08 00:21:09;;;;;;;7.73;5.23;;;;;;;;;;626754;23;1976;-73
2024/02/08 00:21:27;;;;;;;5.20;3.55;;;;;;;;;;627293;23;919;-73
2024/02/08 00:21:44;;;;;;;2.65;1.75;;;;;;;;;;629007;23;835;-73
2024/02/08 00:21:59;;;;;;;2.30;1.48;;;;;;;;;;629212;23;911;-73
2024/02/08 00:22:15;;;;;;;5.57;4.45;;;;;;;;;;628402;23;812;-73
2024/02/08 00:22:31;;;;;;;9.00;7.25;;;;;;;;;;629140;23;864;-73
2024/02/08 00:22:49;;;;;;;7.33;5.87;;;;;;;;;;630725;23;1394;-73
2024/02/08 00:23:08;;;;;;;9.68;8.00;;;;;;;;;;632413;23;860;-73
2024/02/08 00:23:23;;;;;;;10.43;8.60;;;;;;;;;;632066;23;872;-73
2024/02/08 00:23:38;;;;;;;9.98;8.02;;;;;;;;;;632094;23;872;-73
2024/02/08 00:23:54;;;;;;;11.83;9.17;;;;;;;;;;632189;23;776;-73
2024/02/08 00:24:09;;;;;;;8.23;6.27;;;;;;;;;;632082;23;922;-73
2024/02/08 00:24:24;;;;;;;5.13;4.17;;;;;;;;;;627515;23;1249;-73
2024/02/08 00:24:40;;;;;;;5.00;4.30;;;;;;;;;;628685;23;1289;-73
2024/02/08 00:24:55;;;;;;;7.37;5.90;;;;;;;;;;628966;23;1143;-73
2024/02/08 00:25:10;;;;;;;9.03;7.43;;;;;;;;;;626001;23;1240;-73
2024/02/08 00:25:25;;;;;;;8.57;7.38;;;;;;;;;;625721;23;1089;-73
2024/02/08 00:25:41;;;;;;;8.10;6.67;;;;;;;;;;626061;23;1294;-73
2024/02/08 00:25:56;;;;;;;6.37;5.00;;;;;;;;;;625963;23;1176;-73
2024/02/08 00:26:11;;;;;;;5.60;4.60;;;;;;;;;;626081;23;1131;-73
2024/02/08 00:26:26;;;;;;;6.20;5.37;;;;;;;;;;631563;23;1123;-73
2024/02/08 00:26:42;;;;;;;6.43;5.20;;;;;;;;;;628746;23;1274;-73
2024/02/08 00:26:58;;;;;;;6.90;4.90;;;;;;;;;;629071;23;1072;-73
2024/02/08 00:27:18;;;;;;;6.28;4.65;;;;;;;;;;631673;23;915;-73
2024/02/08 00:27:33;;;;;;;4.82;3.85;;;;;;;;;;629117;23;1283;-73
2024/02/08 00:27:49;;;;;;;3.87;3.27;;;;;;;;;;627267;23;1142;-73
2024/02/08 00:28:04;;;;;;;3.47;2.90;;;;;;;;;;626062;23;841;-73
2024/02/08 00:28:21;;;;;;;3.50;2.63;;;;;;;;;;625689;23;1263;-73
2024/02/08 00:28:39;;;;;;;3.30;2.67;;;;;;;;;;625894;23;864;-73
2024/02/08 00:28:55;;;;;;;2.95;2.65;;;;;;;;;;626087;23;1252;-73
2024/02/08 00:29:11;;;;;;;2.47;2.23;;;;;;;;;;626173;23;903;-73
2024/02/08 00:29:27;;;;;;;2.80;1.90;;;;;;;;;;625713;23;857;-73
2024/02/08 00:29:42;;;;;;;3.25;2.03;;;;;;;;;;626001;23;1006;-73
2024/02/08 00:30:01;;;;;;;2.50;1.97;;;;;;;;;;625936;23;868;-73
2024/02/08 00:30:17;;;;;;;2.08;1.80;;;;;;;;;;628006;23;1001;-73
2024/02/08 00:30:32;;;;;;;1.70;1.60;;;;;;;;;;628937;23;1126;-73
2024/02/08 00:30:47;;;;;;;1.90;1.70;;;;;;;;;;626920;23;1279;-73
2024/02/08 00:31:04;;;;;;;1.93;1.70;;;;;;;;;;628907;23;1309;-73
2024/02/08 00:31:19;;;;;;;2.08;1.70;;;;;;;;;;628738;23;1324;-73
2024/02/08 00:31:35;;;;;;;2.37;1.63;;;;;;;;;;629218;23;987;-73
2024/02/08 00:31:50;;;;;;;2.00;1.48;;;;;;;;;;625767;23;1375;-73
2024/02/08 00:32:05;;;;;;;1.70;1.50;;;;;;;;;;625964;23;813;-73
2024/02/08 00:32:21;;;;;;;2.17;1.63;;;;;;;;;;625047;23;951;-73
2024/02/08 00:32:36;;;;;;;1.95;1.60;;;;;;;;;;626544;23;932;-73
2024/02/08 00:32:52;;;;;;;1.67;1.47;;;;;;;;;;629130;23;1192;-73
2024/02/08 00:33:07;;;;;;;2.08;1.60;;;;;;;;;;628989;23;946;-73
2024/02/08 00:33:24;;;;;;;2.17;1.70;;;;;;;;;;629072;23;805;-73
2024/02/08 00:33:39;;;;;;;1.92;1.60;;;;;;;;;;629988;23;884;-73
2024/02/08 00:33:54;;;;;;;1.80;1.57;;;;;;;;;;632165;23;1055;-74
2024/02/08 00:34:11;;;;;;;1.80;1.53;;;;;;;;;;631979;23;1118;-73
2024/02/08 00:34:26;;;;;;;1.80;1.50;;;;;;;;;;634869;23;1368;-73
2024/02/08 00:34:41;;;;;;;1.70;1.50;;;;;;;;;;635209;23;967;-73
2024/02/08 00:34:57;;;;;;;2.00;1.40;;;;;;;;;;634843;23;1115;-73
2024/02/08 00:35:17;;;;;;;1.92;1.38;;;;;;;;;;634649;23;1111;-73
2024/02/08 00:35:33;;;;;;;2.20;1.50;;;;;;;;;;633710;23;938;-73
2024/02/08 00:35:49;;;;;;;2.20;1.50;;;;;;;;;;629313;23;943;-73
2024/02/08 00:36:04;;;;;;;3.17;1.50;;;;;;;;;;629100;23;1097;-73
2024/02/08 00:36:21;;;;;;;2.67;1.50;;;;;;;;;;631608;23;1223;-73
2024/02/08 00:36:36;;;;;;;1.80;1.45;;;;;;;;;;632130;23;1222;-73
2024/02/08 00:36:51;;;;;;;1.77;1.33;;;;;;;;;;631683;23;1123;-73
2024/02/08 00:37:07;;;;;;;1.67;1.40;;;;;;;;;;631901;23;1327;-73
2024/02/08 00:37:22;;;;;;;1.60;1.38;;;;;;;;;;631180;23;995;-73
2024/02/08 00:37:38;;;;;;;1.40;1.30;;;;;;;;;;633095;23;1168;-73
2024/02/08 00:37:53;;;;;;;1.57;1.33;;;;;;;;;;635166;23;1175;-73
2024/02/08 00:38:08;;;;;;;1.80;1.30;;;;;;;;;;634812;23;989;-74
2024/02/08 00:38:24;;;;;;;2.13;1.40;;;;;;;;;;631801;23;923;-73
2024/02/08 00:38:39;;;;;;;2.93;1.50;;;;;;;;;;631878;23;1294;-73
2024/02/08 00:38:54;;;;;;;2.57;1.50;;;;;;;;;;631880;23;1136;-73
2024/02/08 00:39:09;;;;;;;1.50;1.33;;;;;;;;;;632167;23;1064;-74
2024/02/08 00:39:25;;;;;;;1.47;1.20;;;;;;;;;;631470;23;1183;-73
2024/02/08 00:39:42;;;;;;;1.58;1.27;;;;;;;;;;632100;23;1389;-74
2024/02/08 00:39:57;;;;;;;1.67;1.48;;;;;;;;;;632195;23;899;-73
2024/02/08 00:40:21;;;;;;;1.85;1.50;;;;;;;;;;631973;23;1179;-73
2024/02/08 00:40:37;;;;;;;1.40;1.30;;;;;;;;;;632289;23;907;-73
2024/02/08 00:40:52;;;;;;;1.60;1.30;;;;;;;;;;632226;23;915;-73
2024/02/08 00:41:07;;;;;;;1.75;1.30;;;;;;;;;;628527;23;1897;-73
2024/02/08 00:41:23;;;;;;;2.03;1.30;;;;;;;;;;629091;23;923;-73
2024/02/08 00:41:38;;;;;;;1.73;1.23;;;;;;;;;;631121;23;1239;-73
2024/02/08 00:41:57;;;;;;;1.35;1.15;;;;;;;;;;632434;23;820;-73
2024/02/08 00:42:12;;;;;;;1.52;1.10;;;;;;;;;;631894;23;871;-74
2024/02/08 00:42:28;;;;;;;1.50;1.20;;;;;;;;;;631316;23;1039;-73
2024/02/08 00:42:45;;;;;;;1.47;1.17;;;;;;;;;;632074;23;1093;-73
2024/02/08 00:43:05;;;;;;;1.25;1.10;;;;;;;;;;633713;23;907;-73
2024/02/08 00:43:21;;;;;;;1.60;1.00;;;;;;;;;;634798;23;940;-73
2024/02/08 00:43:39;;;;;;;1.52;1.13;;;;;;;;;;635152;23;1139;-74
2024/02/08 00:43:54;;;;;;;1.67;1.30;;;;;;;;;;632039;23;1159;-73
2024/02/08 00:44:10;;;;;;;1.73;1.20;;;;;;;;;;632016;23;1367;-73
2024/02/08 00:44:27;;;;;;;1.63;1.20;;;;;;;;;;631940;23;844;-73
2024/02/08 00:44:43;;;;;;;2.10;1.40;;;;;;;;;;632185;23;946;-73
2024/02/08 00:44:58;;;;;;;2.00;1.40;;;;;;;;;;629165;23;1346;-73
2024/02/08 00:45:21;;;;;;;1.70;1.30;;;;;;;;;;626076;23;1223;-73
2024/02/08 00:45:37;;;;;;;1.58;1.23;;;;;;;;;;623228;23;1219;-74
2024/02/08 00:45:54;;;;;;;1.85;1.20;;;;;;;;;;625686;23;840;-73
2024/02/08 00:46:09;;;;;;;1.77;1.20;;;;;;;;;;626236;23;852;-74
2024/02/08 00:46:25;;;;;;;1.60;1.30;;;;;;;;;;626015;23;900;-74
2024/02/08 00:46:40;;;;;;;1.60;1.20;;;;;;;;;;625956;23;1332;-73
2024/02/08 00:46:55;;;;;;;1.60;1.20;;;;;;;;;;628533;23;1010;-73
2024/02/08 00:47:11;;;;;;;1.40;1.13;;;;;;;;;;628125;23;1050;-74
2024/02/08 00:47:26;;;;;;;1.40;1.10;;;;;;;;;;629157;23;844;-73
2024/02/08 00:47:41;;;;;;;1.33;1.13;;;;;;;;;;632169;23;1187;-74
2024/02/08 00:47:58;;;;;;;1.20;1.10;;;;;;;;;;631968;23;1113;-74
2024/02/08 00:48:13;;;;;;;1.27;1.08;;;;;;;;;;632199;23;1239;-73
2024/02/08 00:48:29;;;;;;;1.87;1.30;;;;;;;;;;631918;23;844;-73
2024/02/08 00:48:44;;;;;;;1.95;1.40;;;;;;;;;;632089;23;1190;-73
2024/02/08 00:48:59;;;;;;;1.67;1.30;;;;;;;;;;632933;23;919;-73
2024/02/08 00:49:16;;;;;;;1.47;1.20;;;;;;;;;;631909;23;1033;-73
2024/02/08 00:49:31;;;;;;;1.38;1.10;;;;;;;;;;631243;23;887;-73
2024/02/08 00:49:48;;;;;;;1.33;1.10;;;;;;;;;;626260;23;1261;-73
2024/02/08 00:50:05;;;;;;;1.33;1.15;;;;;;;;;;627285;23;951;-73
2024/02/08 00:50:21;;;;;;;1.45;1.13;;;;;;;;;;628934;23;871;-73
2024/02/08 00:50:36;;;;;;;1.75;1.20;;;;;;;;;;629174;23;832;-73
2024/02/08 00:50:53;;;;;;;1.70;1.30;;;;;;;;;;628729;23;1275;-73
2024/02/08 00:51:09;;;;;;;1.40;1.20;;;;;;;;;;630619;23;1319;-73
2024/02/08 00:51:25;;;;;;;1.48;1.20;;;;;;;;;;631747;23;1354;-73
2024/02/08 00:51:40;;;;;;;1.80;1.20;;;;;;;;;;632974;23;1113;-73
2024/02/08 00:51:55;;;;;;;1.83;1.30;;;;;;;;;;631919;23;1489;-73
2024/02/08 00:52:12;;;;;;;2.10;1.20;;;;;;;;;;631914;23;1189;-73
2024/02/08 00:52:27;;;;;;;2.42;1.20;;;;;;;;;;631722;23;804;-73
2024/02/08 00:52:43;;;;;;;1.77;1.20;;;;;;;;;;627995;23;1349;-73
2024/02/08 00:53:00;;;;;;;1.30;1.10;;;;;;;;;;626534;23;1320;-73
2024/02/08 00:53:15;;;;;;;1.80;1.10;;;;;;;;;;625877;23;1096;-73
2024/02/08 00:53:31;;;;;;;1.80;1.10;;;;;;;;;;625784;23;1156;-73
2024/02/08 00:53:46;;;;;;;1.40;1.20;;;;;;;;;;626938;23;1010;-73
2024/02/08 00:54:02;;;;;;;1.30;1.17;;;;;;;;;;629000;23;1315;-73
2024/02/08 00:54:17;;;;;;;1.30;1.10;;;;;;;;;;629058;23;836;-73
2024/02/08 00:54:34;;;;;;;1.50;1.20;;;;;;;;;;629745;23;970;-73
2024/02/08 00:54:50;;;;;;;2.00;1.27;;;;;;;;;;631813;23;883;-73
2024/02/08 00:55:05;;;;;;;2.17;1.30;;;;;;;;;;632765;23;1106;-73
2024/02/08 00:55:21;;;;;;;1.88;1.30;;;;;;;;;;634729;23;1197;-73
2024/02/08 00:55:36;;;;;;;1.67;1.27;;;;;;;;;;632016;23;1314;-73
2024/02/08 00:55:52;;;;;;;1.60;1.30;;;;;;;;;;631933;23;1247;-73
2024/02/08 00:56:09;;;;;;;1.40;1.30;;;;;;;;;;632344;23;781;-73
2024/02/08 00:56:25;;;;;;;1.50;1.35;;;;;;;;;;632086;23;891;-73
2024/02/08 00:56:42;;;;;;;1.70;1.47;;;;;;;;;;632318;23;926;-73
2024/02/08 00:56:58;;;;;;;2.22;1.50;;;;;;;;;;632002;23;884;-73
2024/02/08 00:57:13;;;;;;;2.38;1.35;;;;;;;;;;631709;23;915;-73
2024/02/08 00:57:29;;;;;;;1.63;1.25;;;;;;;;;;633327;23;836;-74
2024/02/08 00:57:44;;;;;;;1.60;1.30;;;;;;;;;;635060;23;1030;-74
2024/02/08 00:58:02;;;;;;;1.67;1.30;;;;;;;;;;635376;23;848;-73
2024/02/08 00:58:17;;;;;;;1.70;1.40;;;;;;;;;;635239;23;879;-73
2024/02/08 00:58:32;;;;;;;1.92;1.30;;;;;;;;;;635316;23;1127;-73
2024/02/08 00:58:48;;;;;;;1.90;1.30;;;;;;;;;;635037;23;1192;-73
2024/02/08 00:59:03;;;;;;;2.00;1.30;;;;;;;;;;635256;23;851;-73
2024/02/08 00:59:19;;;;;;;2.10;1.30;;;;;;;;;;635080;23;990;-73
2024/02/08 00:59:38;;;;;;;1.80;1.38;;;;;;;;;;635223;23;1350;-73
2024/02/08 00:59:53;;;;;;;1.67;1.20;;;;;;;;;;635019;23;910;-73
2024/02/08 01:00:09;;;;;;;1.70;1.20;;;;;;;;;;635164;23;1001;-74
2024/02/08 01:00:25;;;;;;;1.58;1.10;;;;;;;;;;634509;23;1096;-73
2024/02/08 01:00:40;;;;;;;1.70;1.20;;;;;;;;;;631972;23;1239;-73
2024/02/08 01:00:55;;;;;;;2.00;1.20;;;;;;;;;;631725;23;1432;-73
2024/02/08 01:01:10;;;;;;;1.97;1.20;;;;;;;;;;631940;23;1959;-73
2024/02/08 01:01:26;;;;;;;2.20;1.20;;;;;;;;;;631859;23;1145;-73
2024/02/08 01:01:41;;;;;;;2.37;1.30;;;;;;;;;;632159;23;965;-73
2024/02/08 01:01:56;;;;;;;1.60;1.20;;;;;;;;;;631860;23;871;-73
2024/02/08 01:02:12;;;;;;;1.43;1.20;;;;;;;;;;631965;23;784;-73
2024/02/08 01:02:28;;;;;;;1.48;1.27;;;;;;;;;;632085;23;990;-73
2024/02/08 01:02:43;;;;;;;1.27;1.10;;;;;;;;;;635039;23;887;-72
2024/02/08 01:02:59;;;;;;;1.40;1.20;;;;;;;;;;635080;23;1238;-72
2024/02/08 01:03:14;;;;;;;1.70;1.30;;;;;;;;;;634988;23;875;-73
2024/02/08 01:03:29;;;;;;;1.50;1.30;;;;;;;;;;634999;23;984;-73
2024/02/08 01:03:45;;;;;;;1.40;1.30;;;;;;;;;;635139;23;1233;-73
2024/02/08 01:04:01;;;;;;;1.40;1.27;;;;;;;;;;634919;23;1383;-73
2024/02/08 01:04:21;;;;;;;1.40;1.20;;;;;;;;;;634686;23;1132;-73
2024/02/08 01:04:36;;;;;;;1.48;1.33;;;;;;;;;;635058;23;1314;-73
2024/02/08 01:04:51;;;;;;;1.50;1.33;;;;;;;;;;635100;23;1024;-73
2024/02/08 01:05:07;;;;;;;1.40;1.30;;;;;;;;;;635125;23;1032;-73
2024/02/08 01:05:22;;;;;;;1.65;1.30;;;;;;;;;;635027;23;955;-73
2024/02/08 01:05:37;;;;;;;1.60;1.30;;;;;;;;;;635233;23;1139;-73
2024/02/08 01:05:53;;;;;;;1.67;1.30;;;;;;;;;;635342;23;816;-73
2024/02/08 01:06:08;;;;;;;1.83;1.35;;;;;;;;;;635288;23;832;-73
2024/02/08 01:06:23;;;;;;;1.40;1.23;;;;;;;;;;634804;23;1129;-73
2024/02/08 01:06:40;;;;;;;1.40;1.30;;;;;;;;;;634993;23;1083;-73
2024/02/08 01:06:55;;;;;;;1.80;1.30;;;;;;;;;;635476;23;914;-74
2024/02/08 01:07:11;;;;;;;1.73;1.27;;;;;;;;;;635017;23;1086;-73
2024/02/08 01:07:27;;;;;;;1.90;1.40;;;;;;;;;;634319;23;1278;-74
2024/02/08 01:07:42;;;;;;;1.90;1.40;;;;;;;;;;635220;23;1186;-72
2024/02/08 01:08:00;;;;;;;1.87;1.30;;;;;;;;;;635302;23;914;-73
2024/02/08 01:08:15;;;;;;;1.95;1.30;;;;;;;;;;635009;23;855;-73
2024/02/08 01:08:30;;;;;;;1.77;1.30;;;;;;;;;;634654;23;1225;-73
2024/02/08 01:08:47;;;;;;;1.30;1.20;;;;;;;;;;634843;23;1383;-73
2024/02/08 01:09:02;;;;;;;1.30;1.20;;;;;;;;;;634866;23;1388;-73
2024/02/08 01:09:17;;;;;;;1.80;1.33;;;;;;;;;;634791;23;1234;-73
2024/02/08 01:09:32;;;;;;;2.30;1.30;;;;;;;;;;634673;23;1000;-73
2024/02/08 01:09:48;;;;;;;1.85;1.17;;;;;;;;;;634708;23;1008;-73
2024/02/08 01:10:07;;;;;;;1.60;1.10;;;;;;;;;;634934;23;887;-73
2024/02/08 01:10:22;;;;;;;1.77;1.13;;;;;;;;;;634351;23;891;-73
2024/02/08 01:10:37;;;;;;;1.70;1.20;;;;;;;;;;635293;23;844;-73
2024/02/08 01:10:53;;;;;;;1.40;1.20;;;;;;;;;;634689;23;1043;-73
2024/02/08 01:11:08;;;;;;;1.30;1.20;;;;;;;;;;635030;23;1005;-74
2024/02/08 01:11:23;;;;;;;1.40;1.20;;;;;;;;;;634614;23;1001;-73
2024/02/08 01:11:38;;;;;;;1.40;1.20;;;;;;;;;;634985;23;1017;-73
2024/02/08 01:11:54;;;;;;;1.40;1.08;;;;;;;;;;634989;23;1067;-73
2024/02/08 01:12:10;;;;;;;1.75;1.10;;;;;;;;;;635142;23;927;-75
2024/02/08 01:12:26;;;;;;;1.47;1.17;;;;;;;;;;634227;23;947;-73
2024/02/08 01:12:42;;;;;;;1.40;1.10;;;;;;;;;;635165;23;958;-73
2024/02/08 01:12:58;;;;;;;1.40;1.05;;;;;;;;;;635222;23;930;-73
2024/02/08 01:13:17;;;;;;;1.20;1.10;;;;;;;;;;634606;23;1168;-73
2024/02/08 01:13:32;;;;;;;1.60;1.20;;;;;;;;;;634794;23;904;-73
2024/02/08 01:13:48;;;;;;;1.58;1.23;;;;;;;;;;635010;23;1047;-73
2024/02/08 01:14:04;;;;;;;1.70;1.30;;;;;;;;;;635061;23;1386;-73
2024/02/08 01:14:21;;;;;;;2.00;1.30;;;;;;;;;;634430;23;952;-73
2024/02/08 01:14:37;;;;;;;1.60;1.20;;;;;;;;;;628913;23;1166;-73
2024/02/08 01:14:53;;;;;;;1.50;1.20;;;;;;;;;;628805;23;1183;-73
2024/02/08 01:15:11;;;;;;;1.30;1.17;;;;;;;;;;628987;23;983;-73
2024/02/08 01:15:26;;;;;;;1.33;1.15;;;;;;;;;;628897;23;879;-73
2024/02/08 01:15:42;;;;;;;1.77;1.20;;;;;;;;;;628911;23;964;-74
2024/02/08 01:15:58;;;;;;;1.67;1.27;;;;;;;;;;629052;23;800;-73
2024/02/08 01:16:14;;;;;;;1.38;1.20;;;;;;;;;;628861;23;939;-73
2024/02/08 01:16:33;;;;;;;1.50;1.20;;;;;;;;;;631538;23;904;-73
2024/02/08 01:16:51;;;;;;;1.52;1.23;;;;;;;;;;635279;23;915;-73
2024/02/08 01:17:07;;;;;;;1.50;1.30;;;;;;;;;;635504;23;959;-73
2024/02/08 01:17:22;;;;;;;1.40;1.10;;;;;;;;;;634429;23;1299;-73
2024/02/08 01:17:37;;;;;;;1.10;0.97;;;;;;;;;;631621;23;1328;-73
2024/02/08 01:17:53;;;;;;;1.23;1.10;;;;;;;;;;631936;23;1149;-73
2024/02/08 01:18:09;;;;;;;1.50;1.27;;;;;;;;;;628967;23;840;-73
2024/02/08 01:18:25;;;;;;;1.40;1.30;;;;;;;;;;628671;23;1310;-73
2024/02/08 01:18:41;;;;;;;1.33;1.20;;;;;;;;;;628824;23;1240;-73
2024/02/08 01:18:58;;;;;;;1.77;1.25;;;;;;;;;;629314;23;903;-73
2024/02/08 01:19:14;;;;;;;1.90;1.30;;;;;;;;;;629055;23;1057;-73
2024/02/08 01:19:31;;;;;;;2.10;1.37;;;;;;;;;;630015;23;1151;-73
2024/02/08 01:19:50;;;;;;;2.00;1.30;;;;;;;;;;632297;23;911;-73
2024/02/08 01:20:06;;;;;;;1.80;1.38;;;;;;;;;;634332;23;930;-73
2024/02/08 01:20:22;;;;;;;1.90;1.52;;;;;;;;;;634930;23;867;-73
2024/02/08 01:20:38;;;;;;;1.63;1.35;;;;;;;;;;635337;23;918;-73
2024/02/08 01:20:54;;;;;;;1.30;1.20;;;;;;;;;;635141;23;1284;-73
2024/02/08 01:21:10;;;;;;;1.63;1.38;;;;;;;;;;635034;23;1916;-73
2024/02/08 01:21:26;;;;;;;1.90;1.50;;;;;;;;;;635057;23;891;-73
2024/02/08 01:21:43;;;;;;;1.75;1.55;;;;;;;;;;632121;23;1544;-73
2024/02/08 01:21:59;;;;;;;1.60;1.50;;;;;;;;;;628924;23;1194;-73
2024/02/08 01:22:19;;;;;;;1.70;1.40;;;;;;;;;;628091;23;1186;-74
2024/02/08 01:22:34;;;;;;;2.00;1.42;;;;;;;;;;629212;23;927;-73
2024/02/08 01:22:50;;;;;;;2.20;1.60;;;;;;;;;;628902;23;1096;-74
2024/02/08 01:23:05;;;;;;;2.13;1.70;;;;;;;;;;628844;23;959;-74
2024/02/08 01:23:22;;;;;;;1.90;1.63;;;;;;;;;;628818;23;1385;-73
2024/02/08 01:23:38;;;;;;;1.70;1.60;;;;;;;;;;631098;23;875;-73
2024/02/08 01:23:54;;;;;;;1.80;1.70;;;;;;;;;;633901;23;1184;-73
2024/02/08 01:24:10;;;;;;;2.38;1.80;;;;;;;;;;635379;23;867;-73
2024/02/08 01:24:25;;;;;;;2.30;1.70;;;;;;;;;;635179;23;820;-73
2024/02/08 01:24:40;;;;;;;1.87;1.60;;;;;;;;;;635426;23;848;-73
2024/02/08 01:24:55;;;;;;;2.37;1.67;;;;;;;;;;634817;23;1342;-73
2024/02/08 01:25:11;;;;;;;2.03;1.60;;;;;;;;;;635384;23;818;-73
2024/02/08 01:25:26;;;;;;;1.60;1.50;;;;;;;;;;634558;23;1191;-73
2024/02/08 01:25:41;;;;;;;1.50;1.40;;;;;;;;;;635199;23;1094;-73
2024/02/08 01:25:57;;;;;;;1.60;1.50;;;;;;;;;;635062;23;1048;-73
2024/02/08 01:26:12;;;;;;;1.60;1.45;;;;;;;;;;634992;23;1426;-73
2024/02/08 01:26:27;;;;;;;1.60;1.50;;;;;;;;;;634994;23;836;-73
2024/02/08 01:26:42;;;;;;;3.07;1.60;;;;;;;;;;635006;23;1194;-73
2024/02/08 01:26:58;;;;;;;3.10;1.60;;;;;;;;;;634963;23;824;-73
2024/02/08 01:27:14;;;;;;;1.92;1.50;;;;;;;;;;634599;23;864;-73
2024/02/08 01:27:30;;;;;;;1.83;1.50;;;;;;;;;;631800;23;1411;-73
2024/02/08 01:27:46;;;;;;;1.63;1.53;;;;;;;;;;629090;23;1231;-73
2024/02/08 01:28:01;;;;;;;1.70;1.60;;;;;;;;;;629115;23;1177;-73
2024/02/08 01:28:16;;;;;;;1.90;1.63;;;;;;;;;;628818;23;945;-73
2024/02/08 01:28:32;;;;;;;2.03;1.77;;;;;;;;;;629010;23;1202;-73
2024/02/08 01:28:47;;;;;;;2.00;1.70;;;;;;;;;;626223;23;1386;-73
2024/02/08 01:29:06;;;;;;;2.00;1.70;;;;;;;;;;628787;23;1263;-73
2024/02/08 01:29:24;;;;;;;2.17;1.77;;;;;;;;;;628864;23;849;-73
2024/02/08 01:29:39;;;;;;;2.10;1.80;;;;;;;;;;630863;23;1407;-73
2024/02/08 01:29:59;;;;;;;2.07;1.87;;;;;;;;;;632352;23;940;-73
2024/02/08 01:30:14;;;;;;;2.17;1.90;;;;;;;;;;632181;23;911;-73
2024/02/08 01:30:31;;;;;;;2.03;1.80;;;;;;;;;;632039;23;844;-73
2024/02/08 01:30:46;;;;;;;2.13;1.80;;;;;;;;;;634355;23;1271;-73
2024/02/08 01:31:03;;;;;;;2.40;1.93;;;;;;;;;;629287;23;1163;-73
2024/02/08 01:31:18;;;;;;;2.20;1.80;;;;;;;;;;628809;23;1299;-73
2024/02/08 01:31:37;;;;;;;1.90;1.73;;;;;;;;;;628973;23;1310;-73
2024/02/08 01:31:53;;;;;;;2.13;1.80;;;;;;;;;;629010;23;950;-73
2024/02/08 01:32:11;;;;;;;2.05;1.85;;;;;;;;;;629215;23;912;-73
2024/02/08 01:32:28;;;;;;;2.05;1.85;;;;;;;;;;628246;23;880;-74
2024/02/08 01:32:43;;;;;;;2.00;1.80;;;;;;;;;;631210;23;895;-73
2024/02/08 01:32:59;;;;;;;2.00;1.80;;;;;;;;;;634002;23;1327;-73
2024/02/08 01:33:14;;;;;;;1.95;1.75;;;;;;;;;;635085;23;915;-73
2024/02/08 01:33:29;;;;;;;2.00;1.80;;;;;;;;;;634865;23;1071;-73
2024/02/08 01:33:48;;;;;;;2.03;1.83;;;;;;;;;;635345;23;772;-73
2024/02/08 01:34:07;;;;;;;2.40;2.00;;;;;;;;;;635227;23;1142;-73
2024/02/08 01:34:25;;;;;;;2.40;1.95;;;;;;;;;;635012;23;963;-73
2024/02/08 01:34:40;;;;;;;2.40;1.90;;;;;;;;;;634986;23;880;-73
2024/02/08 01:34:58;;;;;;;2.67;1.88;;;;;;;;;;634930;23;1158;-73
2024/02/08 01:35:21;;;;;;;2.05;1.85;;;;;;;;;;634959;23;932;-73
2024/02/08 01:35:39;;;;;;;2.65;2.15;;;;;;;;;;635126;23;852;-74
2024/02/08 01:35:56;;;;;;;2.20;1.90;;;;;;;;;;635267;23;863;-73
2024/02/08 01:36:12;;;;;;;2.63;1.92;;;;;;;;;;632229;23;896;-73
2024/02/08 01:36:27;;;;;;;2.73;2.00;;;;;;;;;;631870;23;985;-73
2024/02/08 01:36:42;;;;;;;2.45;2.00;;;;;;;;;;628728;23;1168;-73
2024/02/08 01:36:59;;;;;;;2.37;2.10;;;;;;;;;;625957;23;1197;-73
2024/02/08 01:37:15;;;;;;;2.25;2.05;;;;;;;;;;625640;23;899;-73
2024/02/08 01:37:30;;;;;;;2.70;2.23;;;;;;;;;;626068;23;912;-73
2024/02/08 01:37:46;;;;;;;2.60;2.30;;;;;;;;;;626181;23;824;-73
2024/02/08 01:38:01;;;;;;;2.30;2.10;;;;;;;;;;627110;23;860;-73
2024/02/08 01:38:18;;;;;;;2.37;2.10;;;;;;;;;;628788;23;1281;-73
2024/02/08 01:38:33;;;;;;;2.40;2.10;;;;;;;;;;630115;23;813;-73
2024/02/08 01:38:51;;;;;;;2.47;2.20;;;;;;;;;;633277;23;862;-74
2024/02/08 01:39:12;;;;;;;2.53;2.05;;;;;;;;;;632267;23;997;-73
2024/02/08 01:39:28;;;;;;;2.75;2.00;;;;;;;;;;628756;23;1189;-73
2024/02/08 01:39:46;;;;;;;2.70;1.93;;;;;;;;;;628965;23;987;-74